createdAt,value
2019-06-10T00:02:05.839Z,16.55
2019-06-10T00:05:11.892Z,16.47
2019-06-10T00:08:17.051Z,16.36
2019-06-10T00:11:22.221Z,16.30
2019-06-10T00:14:27.377Z,16.27
2019-06-10T00:17:32.543Z,16.19
2019-06-10T00:20:37.786Z,16.16
2019-06-10T00:23:43.017Z,16.14
2019-06-10T00:26:48.280Z,16.14
2019-06-10T00:29:53.472Z,16.10
2019-06-10T00:32:58.650Z,16.06
2019-06-10T00:36:07.018Z,15.95
2019-06-10T00:39:13.333Z,15.88
2019-06-10T00:42:17.606Z,15.99
2019-06-10T00:45:22.748Z,16.01
2019-06-10T00:48:29.346Z,16.04
2019-06-10T00:51:34.772Z,16.04
2019-06-10T00:54:41.727Z,16.01
2019-06-10T00:57:46.804Z,15.97
2019-06-10T01:00:52.019Z,16.06
2019-06-10T01:03:57.186Z,16.05
2019-06-10T01:07:02.514Z,16.02
2019-06-10T01:10:08.915Z,15.95
2019-06-10T01:13:15.532Z,15.88
2019-06-10T01:16:21.700Z,15.82
2019-06-10T01:19:27.123Z,15.76
2019-06-10T01:22:32.264Z,15.65
2019-06-10T01:25:37.424Z,15.61
2019-06-10T01:28:43.589Z,15.60
2019-06-10T01:31:51.050Z,15.55
2019-06-10T01:34:55.652Z,15.51
2019-06-10T01:38:01.093Z,15.40
2019-06-10T01:41:06.273Z,15.36
2019-06-10T01:44:13.970Z,15.34
2019-06-10T01:47:18.277Z,15.31
2019-06-10T01:50:23.474Z,15.29
2019-06-10T01:53:31.196Z,15.28
2019-06-10T01:56:35.537Z,15.28
2019-06-10T01:59:41.307Z,15.22
2019-06-10T02:02:46.623Z,15.24
2019-06-10T02:05:51.850Z,15.17
2019-06-10T02:09:06.622Z,15.18
2019-06-10T02:12:14.602Z,15.16
2019-06-10T02:15:22.421Z,15.11
2019-06-10T02:18:26.228Z,15.14
2019-06-10T02:21:33.003Z,15.16
2019-06-10T02:24:38.167Z,15.19
2019-06-10T02:27:43.322Z,15.21
2019-06-10T02:30:51.835Z,15.18
2019-06-10T02:33:55.299Z,15.19
2019-06-10T02:37:04.333Z,15.19
2019-06-10T02:40:08.515Z,15.11
2019-06-10T02:43:19.890Z,15.08
2019-06-10T02:46:30.731Z,15.02
2019-06-10T02:49:50.735Z,14.96
2019-06-10T02:52:38.581Z,14.95
2019-06-10T02:55:43.516Z,14.93
2019-06-10T02:58:48.704Z,14.93
2019-06-10T03:01:53.870Z,14.86
2019-06-10T03:04:59.139Z,14.80
2019-06-10T03:08:04.341Z,14.78
2019-06-10T03:11:09.574Z,14.77
2019-06-10T03:14:15.715Z,14.73
2019-06-10T03:17:25.870Z,14.73
2019-06-10T03:20:32.037Z,14.75
2019-06-10T03:23:37.293Z,14.72
2019-06-10T03:26:42.888Z,14.72
2019-06-10T03:29:48.319Z,14.73
2019-06-10T03:32:55.623Z,14.73
2019-06-10T03:36:02.977Z,14.66
2019-06-10T03:39:08.662Z,14.67
2019-06-10T03:42:13.845Z,14.70
2019-06-10T03:45:19.277Z,14.73
2019-06-10T03:48:26.755Z,14.70
2019-06-10T03:51:33.362Z,14.72
2019-06-10T03:54:38.194Z,14.78
2019-06-10T03:57:43.364Z,14.86
2019-06-10T04:00:49.375Z,14.83
2019-06-10T04:03:55.630Z,14.84
2019-06-10T04:07:03.722Z,14.91
2019-06-10T04:10:08.474Z,14.92
2019-06-10T04:13:13.680Z,15.01
2019-06-10T04:16:19.676Z,15.04
2019-06-10T04:19:27.146Z,15.13
2019-06-10T04:22:32.944Z,15.30
2019-06-10T04:25:42.724Z,15.51
2019-06-10T04:28:48.064Z,15.65
2019-06-10T04:31:53.343Z,15.66
2019-06-10T04:34:58.542Z,15.58
2019-06-10T04:38:03.714Z,15.59
2019-06-10T04:41:08.909Z,15.65
2019-06-10T04:44:14.080Z,15.54
2019-06-10T04:47:19.204Z,15.55
2019-06-10T04:50:34.572Z,15.55
2019-06-10T04:53:32.916Z,15.55
2019-06-10T04:56:38.060Z,15.63
2019-06-10T04:59:43.215Z,15.63
2019-06-10T05:02:48.440Z,15.52
2019-06-10T05:05:53.644Z,15.36
2019-06-10T05:08:58.876Z,15.21
2019-06-10T05:12:04.072Z,15.21
2019-06-10T05:15:09.583Z,15.22
2019-06-10T05:18:14.703Z,15.08
2019-06-10T05:21:22.966Z,15.10
2019-06-10T05:24:29.549Z,15.25
2019-06-10T05:27:33.638Z,15.13
2019-06-10T05:30:38.774Z,15.08
2019-06-10T05:33:43.963Z,15.15
2019-06-10T05:36:49.140Z,15.37
2019-06-10T05:39:54.368Z,15.37
2019-06-10T05:43:02.442Z,15.63
2019-06-10T05:46:07.098Z,15.92
2019-06-10T05:49:12.629Z,16.10
2019-06-10T05:52:17.934Z,16.27
2019-06-10T05:55:24.346Z,16.33
2019-06-10T05:58:34.156Z,16.84
2019-06-10T06:01:38.672Z,17.24
2019-06-10T06:04:43.960Z,17.58
2019-06-10T06:08:01.340Z,17.74
2019-06-10T06:10:55.961Z,17.59
2019-06-10T06:14:02.684Z,17.48
2019-06-10T06:17:08.050Z,17.82
2019-06-10T06:20:13.555Z,18.10
2019-06-10T06:23:23.172Z,18.11
2019-06-10T06:26:28.460Z,18.15
2019-06-10T06:29:36.586Z,18.28
2019-06-10T06:32:43.625Z,18.12
2019-06-10T06:35:48.193Z,18.80
2019-06-10T06:38:53.380Z,19.08
2019-06-10T06:41:58.580Z,18.55
2019-06-10T06:45:03.963Z,19.16
2019-06-10T06:48:09.153Z,19.59
2019-06-10T06:51:14.353Z,19.51
2019-06-10T06:54:19.559Z,20.09
2019-06-10T06:57:24.759Z,20.80
2019-06-10T07:00:53.045Z,21.05
2019-06-10T07:03:45.143Z,19.56
2019-06-10T07:06:55.444Z,19.68
2019-06-10T07:10:03.429Z,20.11
2019-06-10T07:13:08.490Z,20.58
2019-06-10T07:16:13.681Z,20.17
2019-06-10T07:19:22.506Z,19.96
2019-06-10T07:22:26.895Z,19.86
2019-06-10T07:25:34.201Z,20.57
2019-06-10T07:28:40.813Z,22.19
2019-06-10T07:31:49.981Z,22.37
2019-06-10T07:34:52.724Z,22.29
2019-06-10T07:37:57.949Z,22.16
2019-06-10T07:41:03.195Z,21.87
2019-06-10T07:44:08.671Z,23.34
2019-06-10T07:47:13.863Z,23.21
2019-06-10T07:50:19.911Z,22.54
2019-06-10T07:53:25.062Z,22.72
2019-06-10T07:56:36.285Z,23.31
2019-06-10T07:59:37.386Z,23.51
2019-06-10T08:02:44.612Z,24.42
2019-06-10T08:05:52.364Z,23.56
2019-06-10T08:08:57.586Z,23.22
2019-06-10T08:12:05.823Z,23.80
2019-06-10T08:15:12.342Z,22.85
2019-06-10T08:18:16.897Z,22.58
2019-06-10T08:21:22.878Z,22.83
2019-06-10T08:24:29.566Z,22.61
2019-06-10T08:27:34.811Z,23.22
2019-06-10T08:30:42.617Z,23.01
2019-06-10T08:33:48.796Z,23.44
2019-06-10T08:36:54.529Z,23.40
2019-06-10T08:39:59.985Z,23.39
2019-06-10T08:43:05.686Z,23.12
2019-06-10T08:46:13.240Z,23.18
2019-06-10T08:49:18.372Z,23.21
2019-06-10T08:52:23.895Z,23.03
2019-06-10T08:55:29.187Z,22.81
2019-06-10T08:58:34.370Z,22.71
2019-06-10T09:01:41.882Z,22.88
2019-06-10T09:04:50.071Z,23.56
2019-06-10T09:07:54.465Z,24.02
2019-06-10T09:11:02.092Z,24.32
2019-06-10T09:14:07.280Z,23.88
2019-06-10T09:17:13.320Z,24.17
2019-06-10T09:20:19.326Z,23.74
2019-06-10T09:23:25.603Z,23.65
2019-06-10T09:26:33.671Z,23.56
2019-06-10T09:29:39.572Z,24.39
2019-06-10T09:32:48.516Z,24.12
2019-06-10T09:35:54.845Z,23.55
2019-06-10T09:38:58.639Z,24.23
2019-06-10T09:42:06.602Z,24.08
2019-06-10T09:45:13.060Z,24.13
2019-06-10T09:48:22.885Z,24.49
2019-06-10T09:51:27.705Z,24.64
2019-06-10T09:54:33.643Z,24.79
2019-06-10T09:57:38.975Z,24.60
2019-06-10T10:00:49.385Z,24.47
2019-06-10T10:03:59.239Z,24.24
2019-06-10T10:07:02.924Z,24.42
2019-06-10T10:10:09.580Z,24.41
2019-06-10T10:13:14.756Z,24.71
2019-06-10T10:16:22.297Z,24.92
2019-06-10T10:19:26.982Z,24.25
2019-06-10T10:22:34.067Z,24.34
2019-06-10T10:25:39.082Z,24.74
2019-06-10T10:28:46.186Z,24.94
2019-06-10T10:31:53.694Z,25.04
2019-06-10T10:34:58.075Z,24.94
2019-06-10T10:38:03.847Z,25.51
2019-06-10T10:41:09.256Z,25.61
2019-06-10T10:44:14.825Z,25.89
2019-06-10T10:47:20.147Z,25.90
2019-06-10T10:50:25.529Z,25.48
2019-06-10T10:53:32.728Z,25.28
2019-06-10T10:56:37.681Z,25.38
2019-06-10T10:59:43.600Z,25.58
2019-06-10T11:02:51.440Z,26.02
2019-06-10T11:06:00.678Z,25.89
2019-06-10T11:09:04.337Z,25.77
2019-06-10T11:12:12.697Z,26.66
2019-06-10T11:15:23.176Z,26.62
2019-06-10T11:18:28.603Z,25.89
2019-06-10T11:21:33.819Z,27.20
2019-06-10T11:24:42.234Z,27.81
2019-06-10T11:27:46.426Z,27.78
2019-06-10T11:30:55.431Z,27.15
2019-06-10T11:33:59.176Z,27.09
2019-06-10T11:37:04.578Z,26.57
2019-06-10T11:40:10.044Z,26.92
2019-06-10T11:43:15.246Z,26.46
2019-06-10T11:46:20.470Z,26.06
2019-06-10T11:49:25.627Z,25.80
2019-06-10T11:52:33.503Z,26.32
2019-06-10T11:55:38.842Z,26.95
2019-06-10T11:58:44.055Z,26.71
2019-06-10T12:01:51.434Z,27.02
2019-06-10T12:04:59.318Z,26.25
2019-06-10T12:08:04.174Z,25.93
2019-06-10T12:11:09.377Z,25.59
2019-06-10T12:14:14.982Z,25.69
2019-06-10T12:17:35.098Z,25.39
2019-06-10T12:20:28.542Z,25.98
2019-06-10T12:23:34.046Z,25.79
2019-06-10T12:26:43.244Z,25.69
2019-06-10T12:29:47.210Z,26.42
2019-06-10T12:32:55.649Z,26.08
2019-06-10T12:36:01.584Z,25.78
2019-06-10T12:39:10.933Z,25.92
2019-06-10T12:42:15.970Z,26.03
2019-06-10T12:45:23.333Z,26.49
2019-06-10T12:48:28.709Z,26.39
2019-06-10T12:51:33.870Z,26.02
2019-06-10T12:54:42.180Z,26.10
2019-06-10T12:57:46.393Z,27.07
2019-06-10T13:00:53.280Z,27.00
2019-06-10T13:03:59.469Z,27.46
2019-06-10T13:07:07.291Z,26.77
2019-06-10T13:10:13.112Z,26.65
2019-06-10T13:13:18.531Z,26.34
2019-06-10T13:16:23.813Z,26.77
2019-06-10T13:19:29.007Z,26.71
2019-06-10T13:22:34.240Z,26.53
2019-06-10T13:25:53.483Z,26.69
2019-06-10T13:28:46.287Z,26.36
2019-06-10T13:31:52.858Z,26.35
2019-06-10T13:34:58.446Z,26.45
2019-06-10T13:38:04.195Z,26.49
2019-06-10T13:41:10.617Z,26.12
2019-06-10T13:44:16.783Z,26.03
2019-06-10T13:47:25.978Z,26.05
2019-06-10T13:50:29.074Z,25.81
2019-06-10T13:53:34.393Z,25.53
2019-06-10T13:56:47.138Z,25.83
2019-06-10T13:59:46.793Z,25.64
2019-06-10T14:02:52.296Z,25.46
2019-06-10T14:06:01.771Z,26.02
2019-06-10T14:09:09.455Z,26.02
2019-06-10T14:12:13.439Z,26.04
2019-06-10T14:15:22.407Z,26.26
2019-06-10T14:18:27.001Z,26.05
2019-06-10T14:21:33.114Z,26.61
2019-06-10T14:24:38.493Z,26.65
2019-06-10T14:27:43.702Z,26.91
2019-06-10T14:30:48.988Z,26.67
2019-06-10T14:33:54.127Z,26.58
2019-06-10T14:36:59.339Z,26.47
2019-06-10T14:40:07.080Z,27.10
2019-06-10T14:43:13.509Z,26.35
2019-06-10T14:46:19.228Z,26.85
2019-06-10T14:49:24.423Z,26.84
2019-06-10T14:52:31.981Z,26.35
2019-06-10T14:55:36.602Z,25.98
2019-06-10T14:58:42.437Z,25.95
2019-06-10T15:01:47.756Z,26.19
2019-06-10T15:04:53.286Z,25.88
2019-06-10T15:07:58.704Z,25.86
2019-06-10T15:11:03.889Z,25.92
2019-06-10T15:14:09.891Z,25.38
2019-06-10T15:17:16.857Z,25.07
2019-06-10T15:20:23.421Z,24.82
2019-06-10T15:23:28.647Z,24.50
2019-06-10T15:26:33.798Z,24.99
2019-06-10T15:29:39.055Z,24.94
2019-06-10T15:32:44.240Z,24.90
2019-06-10T15:35:49.398Z,24.72
2019-06-10T15:38:54.570Z,24.48
2019-06-10T15:41:59.756Z,24.11
2019-06-10T15:45:05.265Z,23.83
2019-06-10T15:48:13.636Z,23.68
2019-06-10T15:51:19.874Z,23.28
2019-06-10T15:54:25.509Z,23.02
2019-06-10T15:57:40.617Z,23.38
2019-06-10T16:00:38.747Z,23.51
2019-06-10T16:03:43.903Z,23.72
2019-06-10T16:06:49.124Z,23.77
2019-06-10T16:09:54.714Z,22.97
2019-06-10T16:12:59.957Z,22.78
2019-06-10T16:16:05.188Z,22.17
2019-06-10T16:19:12.849Z,21.64
2019-06-10T16:22:17.467Z,21.11
2019-06-10T16:25:25.170Z,21.16
2019-06-10T16:28:29.673Z,20.80
2019-06-10T16:31:34.947Z,20.12
2019-06-10T16:34:40.088Z,20.12
2019-06-10T16:37:45.246Z,19.58
2019-06-10T16:40:53.594Z,19.35
2019-06-10T16:43:59.206Z,19.13
2019-06-10T16:47:04.508Z,19.15
2019-06-10T16:50:12.213Z,19.26
2019-06-10T16:53:17.998Z,19.38
2019-06-10T16:56:25.713Z,19.30
2019-06-10T16:59:30.842Z,19.18
2019-06-10T17:02:36.981Z,19.07
2019-06-10T17:05:42.676Z,18.92
2019-06-10T17:08:48.447Z,18.95
2019-06-10T17:11:53.680Z,18.83
2019-06-10T17:14:58.889Z,18.77
2019-06-10T17:18:04.270Z,18.67
2019-06-10T17:21:09.445Z,18.70
2019-06-10T17:24:14.655Z,18.61
2019-06-10T17:27:22.296Z,18.44
2019-06-10T17:30:27.254Z,18.42
2019-06-10T17:33:35.863Z,18.33
2019-06-10T17:36:42.551Z,18.32
2019-06-10T17:39:47.542Z,18.23
2019-06-10T17:42:53.336Z,18.15
2019-06-10T17:45:59.074Z,18.30
2019-06-10T17:49:04.446Z,18.22
2019-06-10T17:52:09.671Z,18.39
2019-06-10T17:55:14.972Z,18.39
2019-06-10T17:58:33.357Z,18.51
2019-06-10T18:01:27.237Z,18.38
2019-06-10T18:04:33.599Z,18.30
2019-06-10T18:07:39.022Z,18.17
2019-06-10T18:10:44.292Z,18.07
2019-06-10T18:13:49.475Z,17.95
2019-06-10T18:16:54.743Z,17.99
2019-06-10T18:20:02.640Z,18.00
2019-06-10T18:23:06.814Z,18.07
2019-06-10T18:26:12.445Z,18.22
2019-06-10T18:29:18.884Z,18.30
2019-06-10T18:32:25.385Z,18.48
2019-06-10T18:35:33.123Z,18.41
2019-06-10T18:38:37.723Z,18.49
2019-06-10T18:41:43.955Z,18.62
2019-06-10T18:44:52.218Z,18.63
2019-06-10T18:47:57.142Z,18.72
2019-06-10T18:51:02.308Z,18.85
2019-06-10T18:54:07.509Z,18.93
2019-06-10T18:57:12.683Z,18.89
2019-06-10T19:00:18.440Z,18.98
2019-06-10T19:03:23.684Z,18.96
2019-06-10T19:06:28.983Z,18.80
2019-06-10T19:09:37.318Z,18.80
2019-06-10T19:12:42.520Z,18.89
2019-06-10T19:15:47.884Z,18.88
2019-06-10T19:18:53.106Z,18.78
2019-06-10T19:22:05.334Z,18.72
2019-06-10T19:25:05.509Z,18.82
2019-06-10T19:28:12.263Z,18.84
2019-06-10T19:31:17.605Z,18.88
2019-06-10T19:34:22.802Z,18.71
2019-06-10T19:37:28.021Z,18.67
2019-06-10T19:40:35.082Z,18.40
2019-06-10T19:43:41.619Z,18.27
2019-06-10T19:46:47.122Z,18.33
2019-06-10T19:49:52.393Z,18.30
2019-06-10T19:52:57.595Z,18.30
2019-06-10T19:56:02.816Z,18.39
2019-06-10T19:59:08.108Z,18.44
2019-06-10T20:02:13.408Z,18.40
2019-06-10T20:05:18.737Z,18.24
2019-06-10T20:08:23.903Z,18.22
2019-06-10T20:11:29.212Z,18.18
2019-06-10T20:14:34.481Z,18.19
2019-06-10T20:17:41.644Z,18.26
2019-06-10T20:20:48.694Z,18.29
2019-06-10T20:23:53.849Z,18.35
2019-06-10T20:26:59.027Z,18.42
2019-06-10T20:30:20.560Z,18.49
2019-06-10T20:33:13.767Z,18.27
2019-06-10T20:36:25.638Z,18.18
2019-06-10T20:39:29.379Z,18.03
2019-06-10T20:42:33.359Z,17.99
2019-06-10T20:45:39.548Z,17.95
2019-06-10T20:48:47.172Z,17.83
2019-06-10T20:52:06.608Z,17.69
2019-06-10T20:55:03.094Z,17.61
2019-06-10T20:58:07.723Z,17.54
2019-06-10T21:01:12.950Z,17.41
2019-06-10T21:04:19.308Z,17.34
2019-06-10T21:07:25.995Z,17.29
2019-06-10T21:10:35.924Z,17.31
2019-06-10T21:13:45.861Z,17.37
2019-06-10T21:16:48.390Z,17.40
2019-06-10T21:19:53.888Z,17.45
2019-06-10T21:23:02.826Z,17.49
2019-06-10T21:26:07.148Z,17.46
2019-06-10T21:29:12.873Z,17.38
2019-06-10T21:32:18.170Z,17.43
2019-06-10T21:35:23.320Z,17.40
2019-06-10T21:38:28.517Z,17.39
2019-06-10T21:41:33.798Z,17.31
2019-06-10T21:44:38.999Z,17.23
2019-06-10T21:47:45.593Z,17.16
2019-06-10T21:50:54.617Z,17.09
2019-06-10T21:53:58.039Z,17.13
2019-06-10T21:57:03.293Z,17.15
2019-06-10T22:00:14.122Z,17.16
2019-06-10T22:03:23.168Z,17.16
2019-06-10T22:06:27.675Z,17.14
2019-06-10T22:09:32.889Z,17.09
2019-06-10T22:12:38.104Z,17.03
2019-06-10T22:15:44.243Z,16.93
2019-06-10T22:18:50.755Z,16.87
2019-06-10T22:21:56.772Z,16.73
2019-06-10T22:25:02.942Z,16.65
2019-06-10T22:28:13.076Z,16.63
2019-06-10T22:31:22.613Z,16.51
2019-06-10T22:34:22.842Z,16.41
2019-06-10T22:37:28.206Z,16.42
2019-06-10T22:40:33.388Z,16.43
2019-06-10T22:43:38.559Z,16.44
2019-06-10T22:46:43.888Z,16.46
2019-06-10T22:49:49.973Z,16.49
2019-06-10T22:52:57.388Z,16.47
2019-06-10T22:56:02.994Z,16.49
2019-06-10T22:59:08.349Z,16.54
2019-06-10T23:02:13.510Z,16.63
2019-06-10T23:05:18.780Z,16.65
2019-06-10T23:08:24.013Z,16.58
2019-06-10T23:11:29.184Z,16.48
2019-06-10T23:14:34.312Z,16.35
2019-06-10T23:17:39.443Z,16.30
2019-06-10T23:20:44.574Z,16.33
2019-06-10T23:23:52.234Z,16.30
2019-06-10T23:26:57.905Z,16.33
2019-06-10T23:30:11.213Z,16.41
2019-06-10T23:33:12.426Z,16.44
2019-06-10T23:36:17.523Z,16.37
2019-06-10T23:39:22.812Z,16.43
2019-06-10T23:42:28.090Z,16.46
2019-06-10T23:45:33.224Z,16.59
2019-06-10T23:48:38.405Z,16.66
2019-06-10T23:51:43.572Z,16.69
2019-06-10T23:54:48.760Z,16.65
2019-06-10T23:57:54.776Z,16.62
